KDAY

Dayton International Airport

Airport
ICAO code
KDAY
IATA Code
DAY
Summary
ICAO Region
NAM
ICAO Territory
Location

Dayton, Ohio

Serving
Dayton
Elevation
1009 ft
Coordinates
39° 54' 8" N , 84° 13' 9" W
KCC
Airport LOS
Parallel Runway Operation
Airport WX
Cumulonimbus
Metar
KDAY 150156Z 05007KT 10SM SCT075 22/12 A3000 RMK AO2 SLP152 T02220122

Description

International airport serving Dayton, Ohio. A public airport located 9 nm north of the central business district of Dayton, a city in Montgomery County, Ohio, United States. Also referred to as simply Dayton International Airport.

Airport map

Aerial View

Airport accidents

SKYbrary Partners:

Safety knowledge contributed by: